createdAt,value
2019-04-04T00:01:47.925Z,11.75
2019-04-04T00:04:22.161Z,11.77
2019-04-04T00:06:57.820Z,11.71
2019-04-04T00:09:31.172Z,11.73
2019-04-04T00:12:06.118Z,11.65
2019-04-04T00:14:39.952Z,11.64
2019-04-04T00:17:12.862Z,11.64
2019-04-04T00:19:45.741Z,11.60
2019-04-04T00:22:18.649Z,11.57
2019-04-04T00:24:51.496Z,11.54
2019-04-04T00:27:24.411Z,11.50
2019-04-04T00:29:57.266Z,11.49
2019-04-04T00:32:30.152Z,11.49
2019-04-04T00:35:02.965Z,11.43
2019-04-04T00:37:36.530Z,11.40
2019-04-04T00:40:11.609Z,11.39
2019-04-04T00:42:44.006Z,11.37
2019-04-04T00:45:16.739Z,11.30
2019-04-04T00:47:50.547Z,11.29
2019-04-04T00:50:23.327Z,11.27
2019-04-04T00:52:56.134Z,11.23
2019-04-04T00:55:28.922Z,11.19
2019-04-04T00:58:01.798Z,11.17
2019-04-04T01:00:34.733Z,11.15
2019-04-04T01:03:07.449Z,11.10
2019-04-04T01:05:41.451Z,11.08
2019-04-04T01:08:14.275Z,11.06
2019-04-04T01:10:49.805Z,11.03
2019-04-04T01:13:23.309Z,11.00
2019-04-04T01:15:57.292Z,10.98
2019-04-04T01:18:31.602Z,10.94
2019-04-04T01:21:06.684Z,10.92
2019-04-04T01:23:40.969Z,10.87
2019-04-04T01:26:14.145Z,10.84
2019-04-04T01:28:47.015Z,10.81
2019-04-04T01:31:20.414Z,10.77
2019-04-04T01:33:53.217Z,10.75
2019-04-04T01:36:26.994Z,10.72
2019-04-04T01:39:00.272Z,10.68
2019-04-04T01:41:36.310Z,10.63
2019-04-04T01:44:11.318Z,10.63
2019-04-04T01:46:46.081Z,10.60
2019-04-04T01:49:19.124Z,10.54
2019-04-04T01:51:56.833Z,10.51
2019-04-04T01:54:27.820Z,10.51
2019-04-04T01:57:00.600Z,10.45
2019-04-04T01:59:33.436Z,10.43
2019-04-04T02:02:06.322Z,10.40
2019-04-04T02:04:40.163Z,10.37
2019-04-04T02:07:12.992Z,10.36
2019-04-04T02:09:47.435Z,10.33
2019-04-04T02:12:22.636Z,10.30
2019-04-04T02:14:55.518Z,10.30
2019-04-04T02:17:28.425Z,10.29
2019-04-04T02:20:01.457Z,10.24
2019-04-04T02:22:34.469Z,10.24
2019-04-04T02:25:09.418Z,10.24
2019-04-04T02:27:42.391Z,10.20
2019-04-04T02:30:16.516Z,10.17
2019-04-04T02:32:49.521Z,10.16
2019-04-04T02:35:22.325Z,10.12
2019-04-04T02:37:56.128Z,10.13
2019-04-04T02:40:29.105Z,10.08
2019-04-04T02:43:01.951Z,10.08
2019-04-04T02:45:35.671Z,10.05
2019-04-04T02:48:09.186Z,10.02
2019-04-04T02:50:41.975Z,9.99
2019-04-04T02:53:19.203Z,9.95
2019-04-04T02:55:49.564Z,9.92
2019-04-04T02:58:22.730Z,9.86
2019-04-04T03:00:59.261Z,9.80
2019-04-04T03:03:31.040Z,9.80
2019-04-04T03:06:03.810Z,9.76
2019-04-04T03:08:37.719Z,9.69
2019-04-04T03:11:13.123Z,9.66
2019-04-04T03:13:46.102Z,9.62
2019-04-04T03:16:21.343Z,9.59
2019-04-04T03:18:55.921Z,9.55
2019-04-04T03:21:28.709Z,9.51
2019-04-04T03:24:05.971Z,9.50
2019-04-04T03:26:35.912Z,9.44
2019-04-04T03:29:10.613Z,9.41
2019-04-04T03:31:43.355Z,9.37
2019-04-04T03:34:17.103Z,9.31
2019-04-04T03:36:49.886Z,9.27
2019-04-04T03:39:22.672Z,9.26
2019-04-04T03:41:56.518Z,9.22
2019-04-04T03:44:29.312Z,9.20
2019-04-04T03:47:02.061Z,9.16
2019-04-04T03:49:34.867Z,9.13
2019-04-04T03:52:11.255Z,9.09
2019-04-04T03:54:42.255Z,9.09
2019-04-04T03:57:15.057Z,9.06
2019-04-04T03:59:47.857Z,9.02
2019-04-04T04:02:23.970Z,8.98
2019-04-04T04:05:00.544Z,8.92
2019-04-04T04:07:31.208Z,8.92
2019-04-04T04:10:04.114Z,8.86
2019-04-04T04:12:36.863Z,8.85
2019-04-04T04:15:09.719Z,8.82
2019-04-04T04:17:45.233Z,8.78
2019-04-04T04:20:17.020Z,8.75
2019-04-04T04:22:50.985Z,8.76
2019-04-04T04:25:24.357Z,8.74
2019-04-04T04:27:57.651Z,8.74
2019-04-04T04:30:30.456Z,8.71
2019-04-04T04:33:03.362Z,8.69
2019-04-04T04:35:40.898Z,8.68
2019-04-04T04:38:10.764Z,8.69
2019-04-04T04:40:46.923Z,8.69
2019-04-04T04:43:18.141Z,8.71
2019-04-04T04:45:50.923Z,8.69
2019-04-04T04:48:25.932Z,8.72
2019-04-04T04:50:58.206Z,8.68
2019-04-04T04:53:30.996Z,8.71
2019-04-04T04:56:03.813Z,8.71
2019-04-04T04:58:36.628Z,8.72
2019-04-04T05:01:09.459Z,8.72
2019-04-04T05:03:42.312Z,8.75
2019-04-04T05:06:15.252Z,8.75
2019-04-04T05:08:48.091Z,8.76
2019-04-04T05:11:20.898Z,8.79
2019-04-04T05:13:53.651Z,8.79
2019-04-04T05:16:26.676Z,8.82
2019-04-04T05:18:59.446Z,8.86
2019-04-04T05:21:34.545Z,8.84
2019-04-04T05:24:06.908Z,8.91
2019-04-04T05:26:39.693Z,8.95
2019-04-04T05:29:13.987Z,8.99
2019-04-04T05:31:49.838Z,9.03
2019-04-04T05:34:21.579Z,9.06
2019-04-04T05:36:54.530Z,9.10
2019-04-04T05:39:27.458Z,9.12
2019-04-04T05:42:01.046Z,9.20
2019-04-04T05:44:34.381Z,9.26
2019-04-04T05:47:07.363Z,9.31
2019-04-04T05:49:40.206Z,9.40
2019-04-04T05:52:13.005Z,9.48
2019-04-04T05:54:45.928Z,9.58
2019-04-04T05:57:20.123Z,9.62
2019-04-04T05:59:55.920Z,9.72
2019-04-04T06:02:28.392Z,9.78
2019-04-04T06:05:01.494Z,9.86
2019-04-04T06:07:36.390Z,9.96
2019-04-04T06:10:11.806Z,10.02
2019-04-04T06:12:43.746Z,10.08
2019-04-04T06:15:16.585Z,10.13
2019-04-04T06:17:49.366Z,10.19
2019-04-04T06:20:22.286Z,10.26
2019-04-04T06:22:55.097Z,10.33
2019-04-04T06:25:34.291Z,10.37
2019-04-04T06:28:04.657Z,10.45
2019-04-04T06:31:26.936Z,10.54
2019-04-04T06:33:57.338Z,10.63
2019-04-04T06:36:30.243Z,10.70
2019-04-04T06:39:04.695Z,10.78
2019-04-04T06:41:37.732Z,10.87
2019-04-04T06:44:12.753Z,10.96
2019-04-04T06:46:45.162Z,11.05
2019-04-04T06:49:17.987Z,11.15
2019-04-04T06:51:51.835Z,11.25
2019-04-04T06:54:25.636Z,11.36
2019-04-04T06:56:59.404Z,11.46
2019-04-04T06:59:33.039Z,11.54
2019-04-04T07:02:06.240Z,11.65
2019-04-04T07:04:39.148Z,11.77
2019-04-04T07:07:12.728Z,11.86
2019-04-04T07:09:46.029Z,11.96
2019-04-04T07:12:24.199Z,12.11
2019-04-04T07:14:53.513Z,12.23
2019-04-04T07:17:26.498Z,12.35
2019-04-04T07:19:59.268Z,12.44
2019-04-04T07:22:32.166Z,12.57
2019-04-04T07:25:06.636Z,12.68
2019-04-04T07:27:40.754Z,12.82
2019-04-04T07:30:15.474Z,12.94
2019-04-04T07:32:48.581Z,13.08
2019-04-04T07:35:21.724Z,13.21
2019-04-04T07:37:57.465Z,13.35
2019-04-04T07:40:29.164Z,13.50
2019-04-04T07:43:02.101Z,13.64
2019-04-04T07:45:34.995Z,13.85
2019-04-04T07:48:07.822Z,14.07
2019-04-04T07:50:40.666Z,14.23
2019-04-04T07:53:13.624Z,14.40
2019-04-04T07:55:46.581Z,14.55
2019-04-04T07:58:19.548Z,14.71
2019-04-04T08:00:52.341Z,14.84
2019-04-04T08:03:25.191Z,15.00
2019-04-04T08:05:58.007Z,15.11
2019-04-04T08:08:30.960Z,15.25
2019-04-04T08:11:03.799Z,15.38
2019-04-04T08:13:36.680Z,15.50
2019-04-04T08:16:09.473Z,15.63
2019-04-04T08:18:42.384Z,15.81
2019-04-04T08:21:15.211Z,16.00
2019-04-04T08:23:48.969Z,16.17
2019-04-04T08:26:21.930Z,16.36
2019-04-04T08:28:54.860Z,16.56
2019-04-04T08:31:27.822Z,16.74
2019-04-04T08:34:00.612Z,16.99
2019-04-04T08:36:35.807Z,17.22
2019-04-04T08:39:12.191Z,17.48
2019-04-04T08:41:45.085Z,17.72
2019-04-04T08:44:17.872Z,18.00
2019-04-04T08:46:51.411Z,18.17
2019-04-04T08:49:24.221Z,18.36
2019-04-04T08:51:56.993Z,18.61
2019-04-04T08:54:29.914Z,18.87
2019-04-04T08:57:02.743Z,19.06
2019-04-04T08:59:35.694Z,19.23
2019-04-04T09:02:08.571Z,19.35
2019-04-04T09:04:41.433Z,19.51
2019-04-04T09:07:14.244Z,19.65
2019-04-04T09:09:47.097Z,19.82
2019-04-04T09:12:21.052Z,19.99
2019-04-04T09:14:53.820Z,20.17
2019-04-04T09:17:26.632Z,20.28
2019-04-04T09:19:59.405Z,20.38
2019-04-04T09:22:32.269Z,20.54
2019-04-04T09:25:05.446Z,20.67
2019-04-04T09:27:38.324Z,20.76
2019-04-04T09:30:12.693Z,20.90
2019-04-04T09:32:45.677Z,21.03
2019-04-04T09:35:18.479Z,21.19
2019-04-04T09:37:51.309Z,21.30
2019-04-04T09:40:24.184Z,21.36
2019-04-04T09:42:57.308Z,21.47
2019-04-04T09:45:30.071Z,21.53
2019-04-04T09:48:03.408Z,21.64
2019-04-04T09:50:36.627Z,21.69
2019-04-04T09:53:10.402Z,21.72
2019-04-04T09:55:43.168Z,21.84
2019-04-04T09:58:16.130Z,21.91
2019-04-04T10:00:50.955Z,21.94
2019-04-04T10:03:24.803Z,21.96
2019-04-04T10:05:57.693Z,21.99
2019-04-04T10:08:30.496Z,22.01
2019-04-04T10:11:03.341Z,22.12
2019-04-04T10:13:36.120Z,22.17
2019-04-04T10:16:08.857Z,22.19
2019-04-04T10:18:41.663Z,22.26
2019-04-04T10:21:14.602Z,22.32
2019-04-04T10:23:47.422Z,22.37
2019-04-04T10:26:21.160Z,22.42
2019-04-04T10:28:53.922Z,22.47
2019-04-04T10:31:26.765Z,22.53
2019-04-04T10:33:59.595Z,22.64
2019-04-04T10:36:32.469Z,22.74
2019-04-04T10:39:08.624Z,22.78
2019-04-04T10:41:41.910Z,22.78
2019-04-04T10:44:14.841Z,22.88
2019-04-04T10:46:47.885Z,22.92
2019-04-04T10:49:20.655Z,22.92
2019-04-04T10:51:53.488Z,22.97
2019-04-04T10:54:26.332Z,23.05
2019-04-04T10:56:59.181Z,23.05
2019-04-04T10:59:32.264Z,23.09
2019-04-04T11:02:05.230Z,23.06
2019-04-04T11:04:38.362Z,23.14
2019-04-04T11:07:11.595Z,23.18
2019-04-04T11:09:44.637Z,23.14
2019-04-04T11:12:17.624Z,23.15
2019-04-04T11:14:50.464Z,23.12
2019-04-04T11:17:23.444Z,23.12
2019-04-04T11:19:56.330Z,23.03
2019-04-04T11:22:29.163Z,23.06
2019-04-04T11:25:02.209Z,23.02
2019-04-04T11:27:35.214Z,23.02
2019-04-04T11:30:10.403Z,22.99
2019-04-04T11:32:43.218Z,22.97
2019-04-04T11:35:16.119Z,22.98
2019-04-04T11:37:48.956Z,22.95
2019-04-04T11:40:21.952Z,22.87
2019-04-04T11:42:54.783Z,22.85
2019-04-04T11:45:27.632Z,22.84
2019-04-04T11:48:00.387Z,22.80
2019-04-04T11:50:33.438Z,22.74
2019-04-04T11:53:06.212Z,22.80
2019-04-04T11:55:39.660Z,22.81
2019-04-04T11:58:12.594Z,22.82
2019-04-04T12:00:47.386Z,22.88
2019-04-04T12:03:20.278Z,22.92
2019-04-04T12:05:53.118Z,22.92
2019-04-04T12:08:25.986Z,22.92
2019-04-04T12:10:58.808Z,22.97
2019-04-04T12:13:31.747Z,22.84
2019-04-04T12:16:04.605Z,22.80
2019-04-04T12:18:37.392Z,22.74
2019-04-04T12:21:10.252Z,22.74
2019-04-04T12:23:43.070Z,22.75
2019-04-04T12:26:16.002Z,22.72
2019-04-04T12:28:48.827Z,22.72
2019-04-04T12:31:21.683Z,22.71
2019-04-04T12:33:54.709Z,22.70
2019-04-04T12:36:27.622Z,22.72
2019-04-04T12:39:00.519Z,22.75
2019-04-04T12:41:35.017Z,22.61
2019-04-04T12:44:07.954Z,22.59
2019-04-04T12:46:42.487Z,22.56
2019-04-04T12:49:15.592Z,22.50
2019-04-04T12:51:48.654Z,22.44
2019-04-04T12:54:21.499Z,22.40
2019-04-04T12:56:54.319Z,22.40
2019-04-04T12:59:27.108Z,22.36
2019-04-04T13:01:59.911Z,22.33
2019-04-04T13:04:32.713Z,22.29
2019-04-04T13:07:06.028Z,22.27
2019-04-04T13:09:38.845Z,22.27
2019-04-04T13:12:11.717Z,22.26
2019-04-04T13:14:44.582Z,22.23
2019-04-04T13:17:17.469Z,22.22
2019-04-04T13:19:50.314Z,22.16
2019-04-04T13:22:23.169Z,22.12
2019-04-04T13:24:55.957Z,22.08
2019-04-04T13:27:28.868Z,22.02
2019-04-04T13:30:01.656Z,21.94
2019-04-04T13:32:35.539Z,21.89
2019-04-04T13:35:08.859Z,21.84
2019-04-04T13:37:41.622Z,21.78
2019-04-04T13:40:14.443Z,21.74
2019-04-04T13:42:47.362Z,21.68
2019-04-04T13:45:20.259Z,21.67
2019-04-04T13:47:54.268Z,21.64
2019-04-04T13:50:27.233Z,21.61
2019-04-04T13:53:00.537Z,21.58
2019-04-04T13:55:33.419Z,21.54
2019-04-04T13:58:07.362Z,21.50
2019-04-04T14:00:40.203Z,21.47
2019-04-04T14:03:13.145Z,21.44
2019-04-04T14:05:46.259Z,21.37
2019-04-04T14:08:19.163Z,21.31
2019-04-04T14:10:58.063Z,21.27
2019-04-04T14:13:26.526Z,21.24
2019-04-04T14:15:59.336Z,21.20
2019-04-04T14:18:39.542Z,21.20
2019-04-04T14:21:06.851Z,21.20
2019-04-04T14:23:39.720Z,21.14
2019-04-04T14:26:12.543Z,21.13
2019-04-04T14:28:46.321Z,21.11
2019-04-04T14:31:19.342Z,21.09
2019-04-04T14:33:52.621Z,21.07
2019-04-04T14:36:26.233Z,21.09
2019-04-04T14:38:59.246Z,21.03
2019-04-04T14:41:35.787Z,21.02
2019-04-04T14:44:08.631Z,20.99
2019-04-04T14:46:41.636Z,20.95
2019-04-04T14:49:15.170Z,20.93
2019-04-04T14:51:48.094Z,20.93
2019-04-04T14:54:21.032Z,20.92
2019-04-04T14:56:53.892Z,20.92
2019-04-04T14:59:27.026Z,20.88
2019-04-04T15:02:00.140Z,20.88
2019-04-04T15:04:34.991Z,20.85
2019-04-04T15:07:11.985Z,20.86
2019-04-04T15:09:44.970Z,20.82
2019-04-04T15:12:18.339Z,20.82
2019-04-04T15:14:51.486Z,20.78
2019-04-04T15:17:24.280Z,20.76
2019-04-04T15:19:57.145Z,20.76
2019-04-04T15:22:31.924Z,20.72
2019-04-04T15:25:04.901Z,20.70
2019-04-04T15:27:39.337Z,20.67
2019-04-04T15:30:16.266Z,20.67
2019-04-04T15:32:49.214Z,20.62
2019-04-04T15:35:22.074Z,20.59
2019-04-04T15:37:55.214Z,20.59
2019-04-04T15:40:28.122Z,20.56
2019-04-04T15:43:00.953Z,20.58
2019-04-04T15:45:34.083Z,20.56
2019-04-04T15:48:06.881Z,20.52
2019-04-04T15:50:39.663Z,20.51
2019-04-04T15:53:12.479Z,20.50
2019-04-04T15:55:45.426Z,20.51
2019-04-04T15:58:18.305Z,20.45
2019-04-04T16:00:52.335Z,20.44
2019-04-04T16:03:25.500Z,20.40
2019-04-04T16:05:58.274Z,20.38
2019-04-04T16:08:33.306Z,20.35
2019-04-04T16:11:06.488Z,20.31
2019-04-04T16:13:39.383Z,20.27
2019-04-04T16:16:12.162Z,20.21
2019-04-04T16:18:46.044Z,20.19
2019-04-04T16:21:19.862Z,20.14
2019-04-04T16:23:52.664Z,20.09
2019-04-04T16:26:25.421Z,20.02
2019-04-04T16:28:58.696Z,19.97
2019-04-04T16:31:34.364Z,19.93
2019-04-04T16:34:06.117Z,19.89
2019-04-04T16:36:38.909Z,19.83
2019-04-04T16:39:11.719Z,19.79
2019-04-04T16:41:44.593Z,19.72
2019-04-04T16:44:17.402Z,19.70
2019-04-04T16:46:50.254Z,19.65
2019-04-04T16:49:23.054Z,19.64
2019-04-04T16:51:57.133Z,19.55
2019-04-04T16:54:29.973Z,19.52
2019-04-04T16:57:03.765Z,19.47
2019-04-04T16:59:36.624Z,19.42
2019-04-04T17:02:09.752Z,19.39
2019-04-04T17:04:42.657Z,19.35
2019-04-04T17:07:15.584Z,19.33
2019-04-04T17:09:48.917Z,19.28
2019-04-04T17:12:21.769Z,19.23
2019-04-04T17:14:54.650Z,19.20
2019-04-04T17:17:27.591Z,19.14
2019-04-04T17:20:00.769Z,19.10
2019-04-04T17:22:33.858Z,19.04
2019-04-04T17:25:07.923Z,18.99
2019-04-04T17:27:41.137Z,18.93
2019-04-04T17:30:15.048Z,18.89
2019-04-04T17:32:49.608Z,18.83
2019-04-04T17:35:22.796Z,18.79
2019-04-04T17:37:55.650Z,18.72
2019-04-04T17:40:28.453Z,18.63
2019-04-04T17:43:02.272Z,18.58
2019-04-04T17:45:35.640Z,18.51
2019-04-04T17:48:08.567Z,18.44
2019-04-04T17:50:41.628Z,18.36
2019-04-04T17:53:15.510Z,18.29
2019-04-04T17:55:49.958Z,18.21
2019-04-04T17:58:23.001Z,18.14
2019-04-04T18:00:56.282Z,18.04
2019-04-04T18:03:29.342Z,17.99
2019-04-04T18:06:02.135Z,17.93
2019-04-04T18:08:35.070Z,17.85
2019-04-04T18:11:08.139Z,17.79
2019-04-04T18:13:41.068Z,17.70
2019-04-04T18:16:14.038Z,17.65
2019-04-04T18:18:46.817Z,17.61
2019-04-04T18:21:19.604Z,17.53
2019-04-04T18:23:52.478Z,17.48
2019-04-04T18:26:25.355Z,17.42
2019-04-04T18:28:58.236Z,17.39
2019-04-04T18:31:31.132Z,17.31
2019-04-04T18:34:04.258Z,17.25
2019-04-04T18:36:37.543Z,17.18
2019-04-04T18:39:11.458Z,17.11
2019-04-04T18:41:44.403Z,17.07
2019-04-04T18:44:17.352Z,16.99
2019-04-04T18:46:50.168Z,16.91
2019-04-04T18:49:23.037Z,16.86
2019-04-04T18:51:55.957Z,16.80
2019-04-04T18:54:28.792Z,16.70
2019-04-04T18:57:01.889Z,16.66
2019-04-04T18:59:34.819Z,16.58
2019-04-04T19:02:07.638Z,16.55
2019-04-04T19:04:40.687Z,16.45
2019-04-04T19:07:13.574Z,16.38
2019-04-04T19:09:46.417Z,16.29
2019-04-04T19:12:19.263Z,16.24
2019-04-04T19:14:52.082Z,16.15
2019-04-04T19:17:24.929Z,16.07
2019-04-04T19:19:57.811Z,16.00
2019-04-04T19:22:31.266Z,15.93
2019-04-04T19:25:04.243Z,15.87
2019-04-04T19:27:37.404Z,15.77
2019-04-04T19:30:11.729Z,15.69
2019-04-04T19:32:44.627Z,15.60
2019-04-04T19:35:18.458Z,15.53
2019-04-04T19:38:00.043Z,15.43
2019-04-04T19:40:25.972Z,15.36
2019-04-04T19:42:58.821Z,15.28
2019-04-04T19:45:31.707Z,15.18
2019-04-04T19:48:04.703Z,15.09
2019-04-04T19:50:39.152Z,15.04
2019-04-04T19:53:12.356Z,14.97
2019-04-04T19:55:45.360Z,14.88
2019-04-04T19:58:18.222Z,14.79
2019-04-04T20:00:51.505Z,14.73
2019-04-04T20:03:24.350Z,14.69
2019-04-04T20:05:57.238Z,14.64
2019-04-04T20:08:30.109Z,14.62
2019-04-04T20:11:02.982Z,14.59
2019-04-04T20:13:35.889Z,14.53
2019-04-04T20:16:08.874Z,14.50
2019-04-04T20:18:41.827Z,14.46
2019-04-04T20:21:14.845Z,14.43
2019-04-04T20:23:47.678Z,14.37
2019-04-04T20:26:20.557Z,14.33
2019-04-04T20:28:53.440Z,14.32
2019-04-04T20:31:26.644Z,14.28
2019-04-04T20:34:02.374Z,14.25
2019-04-04T20:36:33.972Z,14.21
2019-04-04T20:39:09.387Z,14.18
2019-04-04T20:41:44.611Z,14.13
2019-04-04T20:44:19.897Z,14.13
2019-04-04T20:46:52.812Z,14.08
2019-04-04T20:49:25.671Z,14.11
2019-04-04T20:51:58.568Z,14.07
2019-04-04T20:54:31.355Z,14.05
2019-04-04T20:57:04.219Z,14.04
2019-04-04T20:59:36.984Z,14.01
2019-04-04T21:02:09.752Z,14.02
2019-04-04T21:04:43.709Z,14.01
2019-04-04T21:07:16.497Z,13.97
2019-04-04T21:09:49.296Z,13.95
2019-04-04T21:12:22.081Z,13.94
2019-04-04T21:14:56.191Z,13.94
2019-04-04T21:17:29.145Z,13.94
2019-04-04T21:20:05.723Z,13.95
2019-04-04T21:22:38.654Z,13.95
2019-04-04T21:25:11.841Z,13.93
2019-04-04T21:27:44.622Z,13.94
2019-04-04T21:30:18.408Z,13.93
2019-04-04T21:32:51.378Z,13.87
2019-04-04T21:35:24.164Z,13.88
2019-04-04T21:37:56.944Z,13.87
2019-04-04T21:40:29.768Z,13.90
2019-04-04T21:43:02.751Z,13.91
2019-04-04T21:45:35.550Z,13.90
2019-04-04T21:48:08.327Z,13.93
2019-04-04T21:50:41.117Z,13.94
2019-04-04T21:53:13.923Z,13.93
2019-04-04T21:55:46.727Z,13.93
2019-04-04T21:58:20.475Z,13.90
2019-04-04T22:00:55.010Z,13.88
2019-04-04T22:03:28.060Z,13.88
2019-04-04T22:06:00.908Z,13.87
2019-04-04T22:08:33.767Z,13.85
2019-04-04T22:11:06.568Z,13.85
2019-04-04T22:13:39.332Z,13.83
2019-04-04T22:16:12.188Z,13.84
2019-04-04T22:18:45.048Z,13.81
2019-04-04T22:21:17.855Z,13.80
2019-04-04T22:23:50.751Z,13.77
2019-04-04T22:26:23.859Z,13.76
2019-04-04T22:28:56.660Z,13.76
2019-04-04T22:31:29.506Z,13.72
2019-04-04T22:34:02.439Z,13.72
2019-04-04T22:36:35.339Z,13.68
2019-04-04T22:39:09.552Z,13.72
2019-04-04T22:41:42.418Z,13.70
2019-04-04T22:44:15.421Z,13.70
2019-04-04T22:46:49.730Z,13.68
2019-04-04T22:49:22.459Z,13.72
2019-04-04T22:51:55.375Z,13.68
2019-04-04T22:54:28.164Z,13.67
2019-04-04T22:57:01.032Z,13.68
2019-04-04T22:59:33.977Z,13.66
2019-04-04T23:02:06.841Z,13.64
2019-04-04T23:04:39.710Z,13.63
2019-04-04T23:07:12.625Z,13.63
2019-04-04T23:09:45.585Z,13.60
2019-04-04T23:12:18.430Z,13.60
2019-04-04T23:14:51.385Z,13.61
2019-04-04T23:17:24.170Z,13.61
2019-04-04T23:19:57.335Z,13.61
2019-04-04T23:22:30.171Z,13.60
2019-04-04T23:25:03.170Z,13.63
2019-04-04T23:27:36.180Z,13.64
2019-04-04T23:30:09.480Z,13.64
2019-04-04T23:32:42.254Z,13.66
2019-04-04T23:35:16.655Z,13.68
2019-04-04T23:37:49.822Z,13.66
2019-04-04T23:40:22.629Z,13.66
2019-04-04T23:42:55.455Z,13.68
2019-04-04T23:45:28.469Z,13.67
2019-04-04T23:48:01.326Z,13.68
2019-04-04T23:50:34.428Z,13.70
2019-04-04T23:53:08.564Z,13.68
2019-04-04T23:55:41.309Z,13.68
2019-04-04T23:58:12.827Z,13.68
